.
WxDataArchive / Data Records for 2008-10-30
2008-10-29 October 2008 2008-10-31

Data Records for Thursday, 30 October 2008

Time	Temp	Chill	HIndex	Humid	Dewpt	 Wind 	HiWind	WindDir	Rain 	Barom 
-----	----	-----	------	-----	-----	------	------	-------	-----	----- 
00:00	29.0	29.0	29.0	89	26.2	0	0	---	0.00	30.265 
00:05	29.0	29.0	29.0	89	26.2	0	0	---	0.00	30.265 
00:10	28.8	28.8	28.8	90	26.2	0	0	---	0.00	30.265 
00:15	28.7	28.7	28.7	90	26.1	0	0	---	0.00	30.264 
00:20	28.5	28.5	28.5	90	25.9	0	0	---	0.00	30.264 
00:25	28.4	28.4	28.4	90	25.8	0	0	---	0.00	30.268 
00:30	28.4	28.4	28.4	90	25.8	0	0	---	0.00	30.269 
00:35	28.2	28.2	28.2	90	25.7	0	0	---	0.00	30.267 
00:40	28.2	28.2	28.2	90	25.7	0	0	---	0.00	30.266 
00:45	28.1	28.1	28.1	90	25.6	0	0	---	0.00	30.267 
00:50	28.1	28.1	28.1	91	25.8	0	0	---	0.00	30.267 
00:55	27.9	27.9	27.9	91	25.6	0	0	---	0.00	30.270 
01:00	27.9	27.9	27.9	91	25.6	0	0	---	0.00	30.271 
01:05	27.9	27.9	27.9	91	25.6	0	0	---	0.00	30.273 
01:10	27.9	27.9	27.9	91	25.6	0	0	---	0.00	30.273 
01:15	27.9	27.9	27.9	91	25.6	0	0	---	0.00	30.279 
01:20	27.9	27.9	27.9	91	25.6	0	0	---	0.00	30.279 
01:25	27.9	27.9	27.9	91	25.6	0	0	---	0.00	30.279 
01:30	27.9	27.9	27.9	91	25.6	0	0	---	0.00	30.280 
01:35	27.9	27.9	27.9	91	25.6	0	0	---	0.00	30.281 
01:40	27.9	27.9	27.9	91	25.6	0	0	---	0.00	30.282 
01:45	27.8	27.8	27.8	91	25.5	0	0	---	0.00	30.284 
01:50	27.6	27.6	27.6	91	25.3	0	0	---	0.00	30.286 
01:55	27.5	27.5	27.5	91	25.2	0	0	---	0.00	30.292 
02:00	27.5	27.5	27.5	91	25.2	0	0	---	0.00	30.294 
02:05	27.5	27.5	27.5	92	25.5	0	0	---	0.00	30.294 
02:10	27.5	27.5	27.5	92	25.5	0	0	---	0.00	30.295 
02:15	27.5	27.5	27.5	92	25.5	0	0	---	0.00	30.296 
02:20	27.5	27.5	27.5	92	25.5	0	0	---	0.00	30.297 
02:25	27.5	27.5	27.5	92	25.5	0	0	---	0.00	30.299 
02:30	27.5	27.5	27.5	92	25.5	0	0	---	0.00	30.301 
02:35	27.3	27.3	27.3	92	25.3	0	0	---	0.00	30.302 
02:40	27.3	27.3	27.3	92	25.3	0	0	---	0.00	30.305 
02:45	27.2	27.2	27.2	92	25.2	0	0	---	0.00	30.304 
02:50	27.0	27.0	27.0	92	25.0	0	0	---	0.00	30.307 
02:55	26.9	26.9	26.9	92	24.9	0	0	---	0.00	30.308 
03:00	26.7	26.7	26.7	92	24.7	0	0	---	0.00	30.308 
03:05	26.7	26.7	26.7	92	24.7	0	0	---	0.00	30.312 
03:10	26.6	26.6	26.6	92	24.6	0	0	---	0.00	30.314 
03:15	26.6	26.6	26.6	92	24.6	0	0	---	0.00	30.314 
03:20	26.4	26.4	26.4	92	24.4	0	0	---	0.00	30.317 
03:25	26.4	26.4	26.4	92	24.4	0	0	---	0.00	30.320 
03:30	26.4	26.4	26.4	92	24.4	0	0	---	0.00	30.323 
03:35	26.4	26.4	26.4	92	24.4	0	0	---	0.00	30.325 
03:40	26.6	26.6	26.6	92	24.6	0	0	---	0.00	30.326 
03:45	26.6	26.6	26.6	92	24.6	0	0	---	0.00	30.326 
03:50	26.6	26.6	26.6	92	24.6	0	0	---	0.00	30.327 
03:55	26.4	26.4	26.4	92	24.4	0	0	---	0.00	30.327 
04:00	26.3	26.3	26.3	92	24.3	0	0	---	0.00	30.328 
04:05	26.3	26.3	26.3	92	24.3	0	0	---	0.00	30.330 
04:10	26.1	26.1	26.1	92	24.1	0	0	---	0.00	30.331 
04:15	26.0	26.0	26.0	92	24.0	0	0	---	0.00	30.330 
04:20	26.0	26.0	26.0	92	24.0	0	0	---	0.00	30.332 
04:25	26.0	26.0	26.0	92	24.0	0	0	---	0.00	30.334 
04:30	25.8	25.8	25.8	92	23.8	0	0	---	0.00	30.334 
04:35	25.8	25.8	25.8	92	23.8	0	0	---	0.00	30.337 
04:40	25.7	25.7	25.7	92	23.7	0	0	---	0.00	30.344 
04:45	25.7	25.7	25.7	92	23.7	0	0	---	0.00	30.347 
04:50	25.7	25.7	25.7	92	23.7	0	0	---	0.00	30.350 
04:55	25.6	25.6	25.6	92	23.6	0	0	---	0.00	30.357 
05:00	25.6	25.6	25.6	92	23.6	0	0	---	0.00	30.356 
05:05	25.4	25.4	25.4	92	23.4	0	0	---	0.00	30.361 
05:10	25.4	25.4	25.4	92	23.4	0	0	---	0.00	30.365 
05:15	25.3	25.3	25.3	92	23.3	0	0	---	0.00	30.364 
05:20	25.3	25.3	25.3	92	23.3	0	0	---	0.00	30.366 
05:25	25.3	25.3	25.3	92	23.3	0	0	---	0.00	30.367 
05:30	25.1	25.1	25.1	92	23.1	0	0	---	0.00	30.367 
05:35	25.1	25.1	25.1	92	23.1	0	0	---	0.00	30.370 
05:40	25.1	25.1	25.1	92	23.1	0	0	---	0.00	30.375 
05:45	25.1	25.1	25.1	92	23.1	0	0	---	0.00	30.377 
05:50	25.1	25.1	25.1	92	23.1	0	0	---	0.00	30.377 
05:55	25.1	25.1	25.1	92	23.1	0	0	---	0.00	30.379 
06:00	25.0	25.0	25.0	92	23.0	0	0	---	0.00	30.381 
06:05	25.0	25.0	25.0	92	23.0	0	0	---	0.00	30.384 
06:10	24.8	24.8	24.8	92	22.8	0	0	---	0.00	30.384 
06:15	24.8	24.8	24.8	92	22.8	0	0	---	0.00	30.382 
06:20	24.8	24.8	24.8	92	22.8	0	0	---	0.00	30.381 
06:25	24.7	24.7	24.7	92	22.7	0	0	---	0.00	30.379 
06:30	24.7	24.7	24.7	92	22.7	0	0	---	0.00	30.381 
06:35	24.5	24.5	24.5	92	22.5	0	0	---	0.00	30.381 
06:40	24.5	24.5	24.5	92	22.5	0	0	---	0.00	30.382 
06:45	24.5	24.5	24.5	92	22.5	0	0	---	0.00	30.383 
06:50	24.5	24.5	24.5	92	22.5	0	0	---	0.00	30.383 
06:55	24.7	24.7	24.7	92	22.7	0	0	---	0.00	30.385 
07:00	24.7	24.7	24.7	92	22.7	0	0	---	0.00	30.388 
07:05	24.7	24.7	24.7	92	22.7	0	0	---	0.00	30.390 
07:10	24.5	24.5	24.5	92	22.5	0	0	---	0.00	30.392 
07:15	24.5	24.5	24.5	92	22.5	0	0	---	0.00	30.398 
07:20	24.5	24.5	24.5	92	22.5	0	0	---	0.00	30.401 
07:25	24.5	24.5	24.5	92	22.5	0	0	---	0.00	30.400 
07:30	24.5	24.5	24.5	92	22.5	0	0	---	0.00	30.402 
07:35	24.7	24.7	24.7	92	22.7	0	0	---	0.00	30.403 
07:40	24.7	24.7	24.7	92	22.7	0	0	---	0.00	30.404 
07:45	24.8	24.8	24.8	92	22.8	0	0	---	0.00	30.412 
07:50	25.0	25.0	25.0	92	23.0	0	0	---	0.00	30.413 
07:55	25.3	25.3	25.3	93	23.6	0	0	---	0.00	30.416 
08:00	25.6	25.6	25.6	93	23.9	0	0	---	0.00	30.418 
08:05	26.0	26.0	26.0	93	24.3	0	0	---	0.00	30.423 
08:10	26.3	26.3	26.3	93	24.6	0	0	---	0.00	30.425 
08:15	27.0	27.0	27.0	94	25.5	0	0	---	0.00	30.425 
08:20	27.9	27.9	27.9	94	26.4	0	0	---	0.00	30.426 
08:25	28.7	28.7	28.7	94	27.2	0	0	---	0.00	30.430 
08:30	29.4	29.4	29.4	94	27.9	0	0	---	0.00	30.428 
08:35	30.0	30.0	30.0	94	28.5	0	0	---	0.00	30.430 
08:40	31.0	31.0	31.0	95	29.7	0	0	---	0.00	30.429 
08:45	31.8	31.8	31.8	95	30.5	0	0	---	0.00	30.429 
08:50	32.7	32.7	32.7	95	31.4	0	1	315	0.00	30.428 
08:55	33.7	33.7	33.7	95	32.4	0	1	315	0.00	30.426 
09:00	35.2	35.2	35.2	95	33.9	0	3	90	0.00	30.426 
09:05	36.5	36.5	36.5	92	34.4	0	1	90	0.00	30.428 
09:10	37.8	37.8	37.8	88	34.6	0	1	90	0.00	30.429 
09:15	38.5	38.5	38.5	84	34.1	0	1	68	0.00	30.433 
09:20	38.9	38.9	38.9	81	33.6	0	1	68	0.00	30.433 
09:25	39.3	39.3	39.3	80	33.7	0	1	68	0.00	30.433 
09:30	39.6	39.6	39.6	76	32.7	1	3	68	0.00	30.432 
09:35	40.3	40.3	40.3	72	32.0	0	1	68	0.00	30.435 
09:40	41.1	41.1	41.1	71	32.4	1	3	90	0.00	30.437 
09:45	41.8	41.8	41.8	68	32.0	0	2	90	0.00	30.436 
09:50	42.5	42.5	42.5	65	31.6	0	4	68	0.00	30.437 
09:55	43.2	43.2	43.2	64	31.9	1	2	68	0.00	30.437 
10:00	43.3	43.3	43.3	63	31.6	1	4	90	0.00	30.438 
10:05	43.5	43.5	43.5	63	31.8	1	6	90	0.00	30.442 
10:10	43.3	43.3	43.3	62	31.2	1	4	270	0.00	30.445 
10:15	43.2	43.2	43.2	62	31.1	1	5	248	0.00	30.445 
10:20	43.6	43.6	43.6	63	31.8	1	4	90	0.00	30.442 
10:25	43.9	43.9	43.9	61	31.3	1	5	248	0.00	30.445 
10:30	44.3	44.3	44.3	62	32.1	1	3	68	0.00	30.446 
10:35	44.6	44.6	44.6	61	32.0	1	3	68	0.00	30.446 
10:40	45.2	45.2	45.2	59	31.7	1	4	68	0.00	30.443 
10:45	45.7	45.7	45.7	61	33.0	0	2	90	0.00	30.445 
10:50	45.8	45.8	45.8	60	32.7	1	3	248	0.00	30.446 
10:55	46.2	46.2	46.2	60	33.1	1	2	90	0.00	30.444 
11:00	46.4	46.4	46.4	58	32.4	1	3	112	0.00	30.443 
11:05	46.7	46.7	46.7	59	33.1	1	3	90	0.00	30.442 
11:10	47.0	47.0	47.0	56	32.1	1	3	112	0.00	30.441 
11:15	47.3	47.3	47.3	58	33.3	0	3	270	0.00	30.443 
11:20	47.1	47.1	47.1	55	31.8	1	6	248	0.00	30.443 
11:25	47.3	47.3	47.3	58	33.3	0	5	22	0.00	30.445 
11:30	47.3	47.3	47.3	57	32.8	1	4	248	0.00	30.446 
11:35	47.1	47.1	47.1	54	31.3	1	6	270	0.00	30.444 
11:40	47.1	47.1	47.1	54	31.3	1	5	248	0.00	30.444 
11:45	47.3	47.3	47.3	54	31.5	2	5	270	0.00	30.440 
11:50	47.4	47.4	47.4	56	32.5	1	4	68	0.00	30.440 
11:55	48.0	48.0	48.0	56	33.1	1	3	68	0.00	30.437 
12:00	48.3	48.3	48.3	57	33.8	1	3	90	0.00	30.436 
12:05	48.6	48.6	48.6	55	33.2	1	4	270	0.00	30.436 
12:10	48.9	48.9	48.9	52	32.1	1	5	248	0.00	30.435 
12:15	49.4	49.4	49.4	52	32.5	1	4	248	0.00	30.435 
12:20	49.5	49.5	49.5	52	32.6	1	4	90	0.00	30.430 
12:25	49.6	49.6	49.6	52	32.7	1	3	90	0.00	30.429 
12:30	49.8	49.8	49.8	54	33.8	0	3	135	0.00	30.423 
12:35	50.1	50.1	50.1	53	33.6	1	2	45	0.00	30.422 
12:40	50.4	50.4	50.4	51	33.0	1	4	90	0.00	30.420 
12:45	50.5	50.5	50.5	47	31.0	2	5	225	0.00	30.419 
12:50	50.7	50.7	50.7	48	31.7	1	4	90	0.00	30.416 
12:55	51.1	51.1	51.1	50	33.1	1	3	248	0.00	30.412 
13:00	51.6	51.6	51.6	48	32.6	1	3	292	0.00	30.407 
13:05	51.7	51.7	51.7	46	31.6	2	5	248	0.00	30.404 
13:10	51.9	51.9	51.9	47	32.3	1	6	112	0.00	30.403 
13:15	52.0	52.0	52.0	46	31.9	2	5	90	0.00	30.403 
13:20	52.3	52.3	52.3	46	32.1	1	4	90	0.00	30.402 
13:25	52.6	52.6	52.6	43	30.7	2	7	248	0.00	30.402 
13:30	52.9	52.9	52.9	44	31.6	1	3	112	0.00	30.402 
13:35	53.1	53.1	53.1	43	31.2	1	4	68	0.00	30.401 
13:40	53.2	53.2	53.2	43	31.3	1	9	45	0.00	30.399 
13:45	53.3	53.3	53.3	42	30.8	1	9	112	0.00	30.396 
13:50	53.5	53.5	53.5	41	30.4	1	5	68	0.00	30.390 
13:55	53.9	53.9	53.9	43	31.9	1	3	292	0.00	30.392 
14:00	54.4	54.4	54.4	38	29.3	1	6	270	0.00	30.391 
14:05	54.5	54.5	54.5	38	29.4	1	4	90	0.00	30.390 
14:10	54.7	54.7	54.7	36	28.3	2	6	248	0.00	30.386 
14:15	54.8	54.8	54.8	38	29.7	2	5	248	0.00	30.386 
14:20	54.8	54.8	54.8	38	29.7	1	4	248	0.00	30.385 
14:25	55.0	55.0	55.0	38	29.9	1	2	90	0.00	30.384 
14:30	55.0	55.0	55.0	39	30.5	1	7	90	0.00	30.383 
14:35	55.1	55.1	55.1	38	30.0	1	3	248	0.00	30.383 
14:40	55.4	55.4	55.4	35	28.2	1	5	248	0.00	30.382 
14:45	55.7	55.7	55.7	36	29.2	1	4	225	0.00	30.381 
14:50	55.9	55.9	55.9	35	28.7	1	4	270	0.00	30.382 
14:55	56.3	56.3	56.3	35	29.0	1	5	270	0.00	30.383 
15:00	56.6	56.6	56.6	33	27.8	1	5	248	0.00	30.378 
15:05	56.6	56.6	56.6	34	28.6	1	4	248	0.00	30.378 
15:10	56.6	56.6	56.6	35	29.3	1	2	0	0.00	30.374 
15:15	56.5	56.5	56.5	34	28.5	1	3	248	0.00	30.371 
15:20	56.3	56.3	56.3	34	28.3	1	9	248	0.00	30.370 
15:25	56.5	56.5	56.5	33	27.7	2	6	248	0.00	30.370 
15:30	56.6	56.6	56.6	34	28.6	1	3	248	0.00	30.371 
15:35	56.5	56.5	56.5	32	27.0	2	6	270	0.00	30.371 
15:40	56.5	56.5	56.5	32	27.0	2	5	248	0.00	30.371 
15:45	56.5	56.5	56.5	32	27.0	1	6	248	0.00	30.369 
15:50	56.5	56.5	56.5	32	27.0	2	9	248	0.00	30.368 
15:55	56.3	56.3	56.3	32	26.8	1	5	248	0.00	30.368 
16:00	56.3	56.3	56.3	33	27.6	1	6	248	0.00	30.367 
16:05	56.3	56.3	56.3	31	26.1	1	5	248	0.00	30.367 
16:10	56.3	56.3	56.3	32	26.8	1	3	68	0.00	30.365 
16:15	56.3	56.3	56.3	32	26.8	1	5	248	0.00	30.361 
16:20	56.3	56.3	56.3	33	27.6	0	2	338	0.00	30.363 
16:25	56.2	56.2	56.2	32	26.7	0	3	338	0.00	30.365 
16:30	56.2	56.2	56.2	32	26.7	0	2	248	0.00	30.365 
16:35	56.2	56.2	56.2	33	27.5	0	4	248	0.00	30.366 
16:40	56.0	56.0	56.0	32	26.6	0	2	248	0.00	30.368 
16:45	56.0	56.0	56.0	32	26.6	0	2	248	0.00	30.368 
16:50	55.9	55.9	55.9	32	26.5	0	2	248	0.00	30.368 
16:55	55.7	55.7	55.7	32	26.3	0	4	248	0.00	30.363 
17:00	55.4	55.4	55.4	32	26.0	0	3	248	0.00	30.366 
17:05	55.1	55.1	55.1	33	26.5	0	3	248	0.00	30.367 
17:10	54.7	54.7	54.7	34	26.9	0	1	248	0.00	30.368 
17:15	54.4	54.4	54.4	35	27.3	0	2	248	0.00	30.368 
17:20	53.9	53.9	53.9	35	26.9	0	1	248	0.00	30.367 
17:25	53.6	53.6	53.6	35	26.6	0	1	248	0.00	30.365 
17:30	53.2	53.2	53.2	36	26.9	0	0	---	0.00	30.365 
17:35	52.9	52.9	52.9	37	27.3	0	0	---	0.00	30.366 
17:40	52.5	52.5	52.5	37	27.0	0	0	---	0.00	30.367 
17:45	52.0	52.0	52.0	39	27.8	0	0	---	0.00	30.371 
17:50	51.4	51.4	51.4	39	27.3	0	0	---	0.00	30.372 
17:55	51.0	51.0	51.0	40	27.5	0	0	---	0.00	30.372 
18:00	50.4	50.4	50.4	43	28.8	0	0	---	0.00	30.371 
18:05	49.6	49.6	49.6	46	29.7	0	0	---	0.00	30.371 
18:10	48.9	48.9	48.9	46	29.0	0	0	---	0.00	30.372 
18:15	48.3	48.3	48.3	48	29.5	0	0	---	0.00	30.372 
18:20	47.7	47.7	47.7	48	29.0	0	0	---	0.00	30.373 
18:25	47.1	47.1	47.1	49	28.9	0	0	---	0.00	30.375 
18:30	46.5	46.5	46.5	52	29.8	0	0	---	0.00	30.375 
18:35	46.1	46.1	46.1	51	29.0	0	0	---	0.00	30.377 
18:40	45.7	45.7	45.7	52	29.1	0	0	---	0.00	30.377 
18:45	45.4	45.4	45.4	52	28.8	0	0	---	0.00	30.378 
18:50	45.1	45.1	45.1	52	28.5	0	0	---	0.00	30.377 
18:55	44.9	44.9	44.9	53	28.8	0	0	---	0.00	30.378 
19:00	44.9	44.9	44.9	53	28.8	0	0	---	0.00	30.376 
19:05	44.9	44.9	44.9	53	28.8	0	0	---	0.00	30.377 
19:10	44.8	44.8	44.8	52	28.3	0	0	---	0.00	30.378 
19:15	44.8	44.8	44.8	53	28.7	0	0	---	0.00	30.378 
19:20	44.6	44.6	44.6	52	28.1	0	0	---	0.00	30.378 
19:25	44.5	44.5	44.5	52	28.0	0	0	---	0.00	30.378 
19:30	44.5	44.5	44.5	53	28.4	0	0	---	0.00	30.376 
19:35	44.5	44.5	44.5	53	28.4	0	0	---	0.00	30.376 
19:40	44.5	44.5	44.5	53	28.4	0	0	---	0.00	30.376 
19:45	44.5	44.5	44.5	52	28.0	0	0	---	0.00	30.377 
19:50	44.5	44.5	44.5	52	28.0	0	0	---	0.00	30.378 
19:55	44.5	44.5	44.5	53	28.4	0	0	---	0.00	30.378 
20:00	44.3	44.3	44.3	53	28.3	0	0	---	0.00	30.378 
20:05	44.1	44.1	44.1	54	28.5	0	0	---	0.00	30.370 
20:10	43.8	43.8	43.8	54	28.3	0	0	---	0.00	30.370 
20:15	43.3	43.3	43.3	54	27.8	0	0	---	0.00	30.369 
20:20	43.1	43.1	43.1	55	28.0	0	0	---	0.00	30.368 
20:25	42.8	42.8	42.8	55	27.8	0	0	---	0.00	30.368 
20:30	42.3	42.3	42.3	56	27.7	0	0	---	0.00	30.366 
20:35	42.1	42.1	42.1	58	28.4	0	0	---	0.00	30.366 
20:40	41.9	41.9	41.9	58	28.2	0	0	---	0.00	30.366 
20:45	41.9	41.9	41.9	56	27.4	0	0	---	0.00	30.365 
20:50	41.9	41.9	41.9	57	27.8	0	0	---	0.00	30.365 
20:55	41.9	41.9	41.9	58	28.2	0	0	---	0.00	30.362 
21:00	41.8	41.8	41.8	59	28.5	0	0	---	0.00	30.361 
21:05	41.6	41.6	41.6	58	27.9	0	0	---	0.00	30.354 
21:10	41.5	41.5	41.5	58	27.8	0	0	---	0.00	30.352 
21:15	41.5	41.5	41.5	59	28.3	0	0	---	0.00	30.353 
21:20	41.2	41.2	41.2	59	28.0	0	0	---	0.00	30.354 
21:25	41.1	41.1	41.1	58	27.5	0	0	---	0.00	30.354 
21:30	41.1	41.1	41.1	58	27.5	0	0	---	0.00	30.354 
21:35	41.1	41.1	41.1	58	27.5	0	0	---	0.00	30.353 
21:40	41.2	41.2	41.2	58	27.6	0	1	248	0.00	30.352 
21:45	41.3	41.3	41.3	58	27.7	0	0	---	0.00	30.351 
21:50	41.6	41.6	41.6	57	27.5	0	0	---	0.00	30.351 
21:55	41.9	41.9	41.9	57	27.8	0	0	---	0.00	30.351 
22:00	42.2	42.2	42.2	56	27.6	0	0	---	0.00	30.350 
22:05	42.2	42.2	42.2	55	27.2	0	0	---	0.00	30.348 
22:10	42.2	42.2	42.2	55	27.2	0	0	---	0.00	30.349 
22:15	42.3	42.3	42.3	55	27.3	0	0	---	0.00	30.349 
22:20	42.5	42.5	42.5	55	27.5	0	1	248	0.00	30.349 
22:25	42.9	42.9	42.9	54	27.4	0	2	248	0.00	30.349 
22:30	43.2	43.2	43.2	54	27.7	0	0	---	0.00	30.348 
22:35	43.5	43.5	43.5	54	28.0	0	1	248	0.00	30.349 
22:40	43.8	43.8	43.8	53	27.8	0	0	---	0.00	30.349 
22:45	43.8	43.8	43.8	53	27.8	0	0	---	0.00	30.348 
22:50	43.6	43.6	43.6	54	28.1	0	1	248	0.00	30.347 
22:55	43.5	43.5	43.5	54	28.0	0	1	248	0.00	30.346 
23:00	43.2	43.2	43.2	55	28.1	0	0	---	0.00	30.348 
23:05	43.1	43.1	43.1	54	27.6	0	1	248	0.00	30.346 
23:10	42.9	42.9	42.9	55	27.9	0	0	---	0.00	30.345 
23:15	42.9	42.9	42.9	54	27.4	0	1	248	0.00	30.346 
23:20	43.1	43.1	43.1	55	28.0	0	1	248	0.00	30.346 
23:25	43.2	43.2	43.2	55	28.1	0	0	---	0.00	30.346 
23:30	43.2	43.2	43.2	54	27.7	0	1	248	0.00	30.346 
23:35	43.3	43.3	43.3	54	27.8	0	2	248	0.00	30.348 
23:40	43.3	43.3	43.3	54	27.8	0	1	248	0.00	30.347 
23:45	43.3	43.3	43.3	54	27.8	0	2	248	0.00	30.349 
23:50	43.5	43.5	43.5	54	28.0	0	2	248	0.00	30.349 
23:55	43.5	43.5	43.5	55	28.4	0	2	248	0.00	30.346 

CoCoRaHS
IN-AL-39
A2 Web Hosting
Creative Commons License
GoDaddy
Look for:

loaded 2017-10-17 00:31:31 • last modified 2010-11-18 10:43:29
Privacy PolicyDisclaimer
• wx.awcolley.com is powered by PmWiki v.2002016 •
• all content (unless otherwise noted) © 2017 A W Colley